Time;durP1;ratioP1;P1;durP2;ratioP2;P2;SDS_P1;SDS_P2;PMS_P1;PMS_P2;Temp;Humidity;BMP_temperature;BMP_pressure;BME280_temperature;BME280_humidity;BME280_pressure;Samples;Min_cycle;Max_cycle;Signal;HPM_P1;HPM_P2
2022/11/01 00:01:32;;;;;;;13.97;7.90;;;;;;;;;;5067874;28;20187;-81
2022/11/01 00:03:58;;;;;;;13.93;8.00;;;;;;;;;;5060345;28;20266;-81
2022/11/01 00:06:25;;;;;;;15.10;8.80;;;;;;;;;;5068422;28;20490;-81
2022/11/01 00:08:51;;;;;;;14.07;8.20;;;;;;;;;;5073395;28;20221;-81
2022/11/01 00:11:17;;;;;;;14.53;8.47;;;;;;;;;;5105596;28;20285;-81
2022/11/01 00:13:47;;;;;;;12.40;7.80;;;;;;;;;;5088519;28;20209;-81
2022/11/01 00:16:13;;;;;;;13.60;8.00;;;;;;;;;;5064104;28;20171;-81
2022/11/01 00:18:39;;;;;;;13.40;7.80;;;;;;;;;;5090035;28;20212;-87
2022/11/01 00:21:05;;;;;;;12.83;7.47;;;;;;;;;;5073123;28;20179;-87
2022/11/01 00:23:31;;;;;;;14.80;7.80;;;;;;;;;;5056162;28;20207;-87
2022/11/01 00:26:01;;;;;;;14.10;7.60;;;;;;;;;;5080104;28;20266;-87
2022/11/01 00:28:27;;;;;;;14.43;7.57;;;;;;;;;;5058587;28;20308;-86
2022/11/01 00:30:54;;;;;;;13.00;7.83;;;;;;;;;;5073828;28;20182;-86
2022/11/01 00:33:20;;;;;;;16.87;8.43;;;;;;;;;;5083047;28;20178;-86
2022/11/01 00:35:47;;;;;;;11.57;6.80;;;;;;;;;;5073282;28;20198;-87
2022/11/01 00:38:13;;;;;;;12.40;6.90;;;;;;;;;;5074176;28;20171;-87
2022/11/01 00:40:39;;;;;;;12.83;7.30;;;;;;;;;;5072937;28;20289;-87
2022/11/01 00:43:05;;;;;;;11.53;7.33;;;;;;;;;;5072750;28;20210;-87
2022/11/01 00:45:31;;;;;;;13.73;8.30;;;;;;;;;;5071659;28;20244;-87
2022/11/01 00:47:58;;;;;;;12.57;6.83;;;;;;;;;;5093272;28;20225;-87
2022/11/01 00:50:24;;;;;;;13.37;6.63;;;;;;;;;;5072496;28;20210;-81
2022/11/01 00:52:50;;;;;;;14.50;6.83;;;;;;;;;;5073880;28;20186;-81
2022/11/01 00:55:16;;;;;;;12.20;6.73;;;;;;;;;;5072790;28;20191;-81
2022/11/01 00:57:45;;;;;;;12.37;6.80;;;;;;;;;;5079659;28;20184;-79
2022/11/01 01:00:13;;;;;;;10.83;6.20;;;;;;;;;;5095341;28;20182;-79
2022/11/01 01:02:39;;;;;;;12.80;7.13;;;;;;;;;;5074279;28;20289;-79
2022/11/01 01:05:05;;;;;;;13.47;7.23;;;;;;;;;;5072649;28;20238;-79
2022/11/01 01:07:31;;;;;;;14.10;7.27;;;;;;;;;;5121391;28;20187;-80
2022/11/01 01:09:57;;;;;;;13.50;7.23;;;;;;;;;;5083762;27;20218;-80
2022/11/01 01:12:23;;;;;;;12.10;7.20;;;;;;;;;;5083367;28;20188;-80
2022/11/01 01:14:49;;;;;;;11.93;6.93;;;;;;;;;;5094049;28;20190;-80
2022/11/01 01:17:15;;;;;;;13.77;7.77;;;;;;;;;;5082866;28;20189;-80
2022/11/01 01:19:41;;;;;;;11.30;6.33;;;;;;;;;;5081682;28;20198;-80
2022/11/01 01:22:07;;;;;;;14.90;7.00;;;;;;;;;;5079526;28;20174;-80
2022/11/01 01:24:33;;;;;;;13.80;7.20;;;;;;;;;;5090880;28;20209;-79
2022/11/01 01:26:59;;;;;;;12.33;7.03;;;;;;;;;;5116091;27;20182;-79
2022/11/01 01:29:25;;;;;;;9.20;6.60;;;;;;;;;;5071734;28;20186;-79
2022/11/01 01:31:51;;;;;;;13.77;7.30;;;;;;;;;;5114450;27;20246;-79
2022/11/01 01:34:18;;;;;;;11.47;6.90;;;;;;;;;;5113532;28;20201;-79
2022/11/01 01:36:44;;;;;;;11.13;6.53;;;;;;;;;;5087030;28;20182;-78
2022/11/01 01:39:10;;;;;;;11.80;6.63;;;;;;;;;;5091721;28;20193;-78
2022/11/01 01:41:55;;;;;;;11.07;6.57;;;;;;;;;;5116407;28;20194;-81
2022/11/01 01:44:40;;;;;;;13.57;6.77;;;;;;;;;;5112071;28;20209;-81
2022/11/01 01:47:06;;;;;;;9.57;6.77;;;;;;;;;;5087523;28;20179;-81
2022/11/01 01:49:32;;;;;;;11.95;7.30;;;;;;;;;;5122288;27;20430;-81
2022/11/01 01:51:58;;;;;;;11.77;6.73;;;;;;;;;;5120877;27;20185;-81
2022/11/01 01:54:24;;;;;;;14.98;6.75;;;;;;;;;;5088731;28;20431;-81
2022/11/01 01:56:50;;;;;;;15.03;6.57;;;;;;;;;;5105502;27;20174;-80
2022/11/01 01:59:17;;;;;;;13.20;6.37;;;;;;;;;;5093075;28;20214;-80
2022/11/01 02:01:43;;;;;;;11.53;6.00;;;;;;;;;;5079665;28;20187;-80
2022/11/01 02:04:12;;;;;;;14.10;6.40;;;;;;;;;;5073718;28;20214;-80
2022/11/01 02:06:39;;;;;;;12.20;6.23;;;;;;;;;;5091412;28;20210;-80
2022/11/01 02:09:06;;;;;;;13.13;6.00;;;;;;;;;;5091816;28;20189;-80
2022/11/01 02:11:32;;;;;;;10.90;5.85;;;;;;;;;;5129114;27;20384;-80
2022/11/01 02:13:58;;;;;;;13.07;6.67;;;;;;;;;;5113496;28;20216;-87
2022/11/01 02:16:24;;;;;;;10.40;6.13;;;;;;;;;;5082289;28;20178;-87
2022/11/01 02:18:53;;;;;;;11.80;6.43;;;;;;;;;;5101448;27;20184;-87
2022/11/01 02:21:30;;;;;;;12.00;6.27;;;;;;;;;;5107647;27;20181;-87
2022/11/01 02:24:12;;;;;;;11.20;6.27;;;;;;;;;;5095168;28;20255;-80
2022/11/01 02:26:45;;;;;;;13.53;6.50;;;;;;;;;;5102013;27;20202;-80
2022/11/01 02:29:41;;;;;;;11.63;5.90;;;;;;;;;;5113113;27;20169;-80
2022/11/01 02:32:22;;;;;;;10.40;6.30;;;;;;;;;;5081618;27;20186;-79
2022/11/01 02:34:51;;;;;;;12.33;6.80;;;;;;;;;;5092009;28;20182;-78
2022/11/01 02:37:17;;;;;;;11.98;6.82;;;;;;;;;;5115447;27;20403;-78
2022/11/01 02:39:47;;;;;;;13.03;6.10;;;;;;;;;;5115962;27;20204;-79
2022/11/01 02:42:23;;;;;;;12.63;6.57;;;;;;;;;;5096496;28;20452;-80
2022/11/01 02:44:52;;;;;;;12.40;6.65;;;;;;;;;;5102299;28;20471;-80
2022/11/01 02:47:19;;;;;;;11.38;6.28;;;;;;;;;;5095357;28;20435;-87
2022/11/01 02:49:46;;;;;;;8.67;6.00;;;;;;;;;;5118394;27;20182;-87
2022/11/01 02:52:19;;;;;;;8.53;5.47;;;;;;;;;;5098836;28;20171;-86
2022/11/01 02:54:48;;;;;;;14.43;6.23;;;;;;;;;;5094801;27;20177;-87
2022/11/01 02:57:23;;;;;;;12.98;6.47;;;;;;;;;;5110218;27;20420;-87
2022/11/01 02:59:49;;;;;;;10.77;6.57;;;;;;;;;;5102539;27;20448;-87
2022/11/01 03:02:38;;;;;;;14.33;5.97;;;;;;;;;;5104347;27;20250;-87
2022/11/01 03:05:04;;;;;;;9.30;6.53;;;;;;;;;;5080712;28;20445;-87
2022/11/01 03:07:30;;;;;;;10.67;6.17;;;;;;;;;;5119396;27;20180;-87
2022/11/01 03:09:56;;;;;;;9.50;5.80;;;;;;;;;;5124967;27;20425;-87
2022/11/01 03:12:28;;;;;;;9.57;6.10;;;;;;;;;;5083524;27;20433;-88
2022/11/01 03:14:57;;;;;;;10.47;6.13;;;;;;;;;;5089868;28;20273;-88
2022/11/01 03:17:42;;;;;;;11.32;6.43;;;;;;;;;;5094196;28;20437;-87
2022/11/01 03:20:11;;;;;;;10.37;5.70;;;;;;;;;;5093603;28;20185;-80
2022/11/01 03:22:42;;;;;;;9.98;6.22;;;;;;;;;;5098716;27;20452;-80
2022/11/01 03:28:23;;;;;;;8.90;5.27;;;;;;;;;;5097418;27;20208;-80
2022/11/01 03:31:09;;;;;;;9.18;5.22;;;;;;;;;;5106872;27;20419;-87
2022/11/01 03:33:39;;;;;;;9.15;5.70;;;;;;;;;;5092335;27;20409;-78
2022/11/01 03:36:10;;;;;;;11.27;5.50;;;;;;;;;;5081537;28;20174;-79
2022/11/01 03:38:38;;;;;;;8.40;4.88;;;;;;;;;;5095357;28;20455;-81
2022/11/01 03:41:05;;;;;;;9.63;5.20;;;;;;;;;;5108814;27;20473;-81
2022/11/01 03:43:33;;;;;;;8.45;5.10;;;;;;;;;;5107671;28;20431;-81
2022/11/01 03:45:59;;;;;;;9.25;4.63;;;;;;;;;;5076796;28;20416;-82
2022/11/01 03:48:25;;;;;;;8.38;5.28;;;;;;;;;;5074315;28;20425;-82
2022/11/01 03:50:55;;;;;;;9.80;5.20;;;;;;;;;;5103214;28;20408;-82
2022/11/01 03:53:21;;;;;;;8.23;4.70;;;;;;;;;;5113270;28;20173;-85
2022/11/01 03:55:47;;;;;;;8.57;5.03;;;;;;;;;;5094559;28;20392;-86
2022/11/01 03:58:13;;;;;;;8.73;5.10;;;;;;;;;;5099711;28;20232;-86
2022/11/01 04:00:40;;;;;;;10.53;4.97;;;;;;;;;;5102385;27;20196;-87
2022/11/01 04:03:07;;;;;;;7.53;4.93;;;;;;;;;;5094881;28;20291;-87
2022/11/01 04:05:34;;;;;;;8.63;4.60;;;;;;;;;;5069180;28;20190;-87
2022/11/01 04:08:00;;;;;;;11.03;4.87;;;;;;;;;;5089707;28;20185;-81
2022/11/01 04:10:27;;;;;;;6.90;4.30;;;;;;;;;;5079831;28;20233;-78
2022/11/01 04:12:54;;;;;;;11.20;4.50;;;;;;;;;;5080279;28;20182;-79
2022/11/01 04:21:06;;;;;;;9.48;4.50;;;;;;;;;;5102153;28;20392;-82
2022/11/01 04:23:33;;;;;;;7.32;4.65;;;;;;;;;;5103716;27;20433;-79
2022/11/01 04:25:59;;;;;;;10.67;4.53;;;;;;;;;;5121047;27;20170;-78
2022/11/01 04:28:25;;;;;;;6.93;4.50;;;;;;;;;;5091435;28;20429;-81
2022/11/01 04:30:51;;;;;;;9.18;4.28;;;;;;;;;;5087118;28;20520;-81
2022/11/01 04:33:18;;;;;;;7.85;4.20;;;;;;;;;;5111598;27;20465;-81
2022/11/01 04:35:44;;;;;;;8.30;4.40;;;;;;;;;;5094383;28;20464;-81
2022/11/01 04:38:11;;;;;;;6.97;4.05;;;;;;;;;;5115748;27;20422;-81
2022/11/01 04:40:37;;;;;;;6.65;3.70;;;;;;;;;;5095763;28;20452;-81
2022/11/01 04:43:03;;;;;;;7.40;2.92;;;;;;;;;;5103521;28;20424;-81
2022/11/01 04:45:29;;;;;;;3.93;2.13;;;;;;;;;;5128361;27;20229;-78
2022/11/01 04:48:12;;;;;;;4.23;2.00;;;;;;;;;;5110342;28;20413;-78
2022/11/01 04:50:39;;;;;;;4.57;1.77;;;;;;;;;;5125644;27;20411;-78
2022/11/01 04:53:05;;;;;;;5.80;1.85;;;;;;;;;;5124066;27;20416;-79
2022/11/01 04:55:31;;;;;;;5.22;1.50;;;;;;;;;;5087006;28;20483;-79
2022/11/01 04:57:57;;;;;;;4.57;1.48;;;;;;;;;;5101727;28;20426;-78
2022/11/01 05:00:23;;;;;;;3.92;1.20;;;;;;;;;;5088997;27;20516;-80
2022/11/01 05:02:49;;;;;;;2.90;1.35;;;;;;;;;;5106714;28;20414;-87
2022/11/01 05:05:16;;;;;;;3.80;1.30;;;;;;;;;;5116209;28;20435;-81
2022/11/01 05:07:42;;;;;;;3.42;1.20;;;;;;;;;;5108974;27;20393;-81
2022/11/01 05:10:08;;;;;;;5.45;1.30;;;;;;;;;;5110812;27;20431;-81
2022/11/01 05:12:35;;;;;;;3.70;1.40;;;;;;;;;;5129134;27;20402;-81
2022/11/01 05:15:01;;;;;;;3.08;1.13;;;;;;;;;;5108249;27;20395;-81
2022/11/01 05:17:27;;;;;;;4.00;1.23;;;;;;;;;;5109345;27;20420;-80
2022/11/01 05:19:53;;;;;;;4.87;1.30;;;;;;;;;;5109931;27;20438;-80
2022/11/01 05:22:19;;;;;;;4.88;1.40;;;;;;;;;;5110118;27;20401;-80
2022/11/01 05:24:45;;;;;;;3.73;1.40;;;;;;;;;;5090489;22;20473;-78
2022/11/01 05:27:11;;;;;;;2.92;1.20;;;;;;;;;;5057982;28;20432;-78
2022/11/01 05:29:37;;;;;;;4.65;1.50;;;;;;;;;;5057310;28;20402;-78
2022/11/01 05:32:03;;;;;;;3.95;1.30;;;;;;;;;;5040921;28;20468;-78
2022/11/01 05:34:29;;;;;;;3.80;1.20;;;;;;;;;;5057427;28;20418;-78
2022/11/01 05:36:55;;;;;;;4.70;1.50;;;;;;;;;;5041372;28;20410;-79
2022/11/01 05:39:21;;;;;;;3.67;1.30;;;;;;;;;;5057355;28;20414;-78
2022/11/01 05:41:47;;;;;;;2.97;1.30;;;;;;;;;;5058413;28;20421;-79
2022/11/01 05:44:13;;;;;;;3.53;1.40;;;;;;;;;;5057441;28;20427;-78
2022/11/01 05:46:39;;;;;;;4.53;1.40;;;;;;;;;;5039485;28;20421;-78
2022/11/01 05:49:05;;;;;;;3.93;1.37;;;;;;;;;;5057704;28;20410;-78
2022/11/01 05:51:31;;;;;;;3.55;1.40;;;;;;;;;;5058087;28;20407;-88
2022/11/01 05:53:57;;;;;;;4.90;1.40;;;;;;;;;;5061869;28;20424;-89
2022/11/01 05:56:23;;;;;;;2.67;1.40;;;;;;;;;;5073614;28;20410;-89
2022/11/01 05:58:49;;;;;;;3.15;1.50;;;;;;;;;;5040934;28;20414;-89
2022/11/01 06:01:16;;;;;;;5.23;1.60;;;;;;;;;;5057035;28;20180;-87
2022/11/01 06:03:42;;;;;;;4.27;1.30;;;;;;;;;;5041070;28;20441;-89
2022/11/01 06:06:09;;;;;;;5.87;1.50;;;;;;;;;;5075285;28;20184;-88
2022/11/01 06:08:35;;;;;;;4.30;1.50;;;;;;;;;;5039044;28;20551;-78
2022/11/01 06:11:02;;;;;;;3.42;1.45;;;;;;;;;;5041444;28;20407;-78
2022/11/01 06:13:28;;;;;;;4.00;1.38;;;;;;;;;;5057912;28;20403;-78
2022/11/01 06:16:01;;;;;;;4.87;1.43;;;;;;;;;;5074931;28;20437;-78
2022/11/01 06:18:27;;;;;;;7.40;1.67;;;;;;;;;;5058344;28;20481;-78
2022/11/01 06:20:53;;;;;;;3.80;1.20;;;;;;;;;;5057128;28;20493;-78
2022/11/01 06:23:19;;;;;;;3.85;1.42;;;;;;;;;;5054283;28;20449;-81
2022/11/01 06:25:45;;;;;;;5.55;1.50;;;;;;;;;;5040548;28;20442;-81
2022/11/01 06:28:11;;;;;;;5.23;1.40;;;;;;;;;;5073893;28;20496;-81
2022/11/01 06:30:38;;;;;;;4.63;1.40;;;;;;;;;;5055405;28;20456;-81
2022/11/01 06:33:05;;;;;;;5.68;1.50;;;;;;;;;;5056921;28;20413;-78
2022/11/01 06:35:31;;;;;;;6.37;1.50;;;;;;;;;;5073478;28;20501;-78
2022/11/01 06:38:01;;;;;;;6.57;1.80;;;;;;;;;;5039373;28;20418;-78
2022/11/01 06:40:27;;;;;;;5.80;1.60;;;;;;;;;;5055873;28;20559;-78
2022/11/01 06:42:58;;;;;;;3.00;1.40;;;;;;;;;;5040858;28;20070;-78
2022/11/01 06:45:24;;;;;;;4.28;1.35;;;;;;;;;;5053681;28;20577;-78
2022/11/01 06:47:50;;;;;;;6.70;1.57;;;;;;;;;;5037220;28;20534;-76
2022/11/01 06:50:16;;;;;;;4.97;1.40;;;;;;;;;;5054530;28;20434;-77
2022/11/01 06:52:42;;;;;;;2.93;1.23;;;;;;;;;;5055357;28;20194;-77
2022/11/01 06:55:08;;;;;;;8.18;1.60;;;;;;;;;;5073174;28;20430;-77
2022/11/01 06:57:34;;;;;;;6.75;1.73;;;;;;;;;;5056298;28;20559;-80
2022/11/01 07:00:00;;;;;;;9.87;1.70;;;;;;;;;;5041012;28;20274;-80
2022/11/01 07:02:26;;;;;;;6.47;1.60;;;;;;;;;;5040654;28;20186;-80
2022/11/01 07:04:52;;;;;;;6.70;1.85;;;;;;;;;;5053835;28;20434;-80
2022/11/01 07:07:18;;;;;;;7.57;2.07;;;;;;;;;;5050064;28;20172;-79
2022/11/01 07:09:44;;;;;;;7.82;2.15;;;;;;;;;;5054652;28;20509;-79
2022/11/01 07:12:10;;;;;;;8.17;2.07;;;;;;;;;;5055104;28;20442;-79
2022/11/01 07:14:36;;;;;;;9.23;2.30;;;;;;;;;;5040404;28;20449;-79
2022/11/01 07:17:02;;;;;;;8.00;1.93;;;;;;;;;;5055669;28;20206;-79
2022/11/01 07:19:28;;;;;;;12.90;2.30;;;;;;;;;;5074536;28;20179;-79
2022/11/01 07:21:54;;;;;;;10.00;2.23;;;;;;;;;;5050595;28;20180;-80
2022/11/01 07:24:20;;;;;;;8.87;2.37;;;;;;;;;;5057109;28;20296;-80
2022/11/01 07:26:46;;;;;;;8.87;2.10;;;;;;;;;;5039612;28;20180;-80
2022/11/01 07:29:12;;;;;;;9.50;2.00;;;;;;;;;;5040200;28;20232;-79
2022/11/01 07:31:38;;;;;;;7.77;2.00;;;;;;;;;;5056758;28;20171;-76
2022/11/01 07:34:04;;;;;;;7.90;2.20;;;;;;;;;;5056317;28;20205;-76
2022/11/01 07:36:30;;;;;;;5.73;1.90;;;;;;;;;;5056307;28;20190;-76
2022/11/01 07:38:56;;;;;;;5.77;1.93;;;;;;;;;;5039619;28;20179;-76
2022/11/01 07:41:22;;;;;;;8.10;2.00;;;;;;;;;;5039831;28;20187;-76
2022/11/01 07:43:48;;;;;;;6.97;2.20;;;;;;;;;;5055366;28;20230;-77
2022/11/01 07:46:14;;;;;;;9.97;2.27;;;;;;;;;;5039765;28;20290;-76
2022/11/01 07:48:40;;;;;;;5.33;2.07;;;;;;;;;;5056170;28;20183;-87
2022/11/01 07:51:08;;;;;;;8.87;2.00;;;;;;;;;;5074192;28;20508;-86
2022/11/01 07:53:34;;;;;;;12.47;2.30;;;;;;;;;;5063242;28;20431;-85
2022/11/01 07:56:01;;;;;;;8.73;2.40;;;;;;;;;;5059313;28;20422;-87
2022/11/01 07:58:27;;;;;;;12.48;2.33;;;;;;;;;;5073376;28;20422;-87
2022/11/01 08:00:53;;;;;;;7.57;2.07;;;;;;;;;;5072939;28;20190;-86
2022/11/01 08:03:19;;;;;;;9.50;2.50;;;;;;;;;;5038199;28;20426;-80
2022/11/01 08:05:46;;;;;;;11.73;2.30;;;;;;;;;;5073742;28;20176;-80
2022/11/01 08:08:13;;;;;;;11.43;2.40;;;;;;;;;;5073702;28;20501;-79
2022/11/01 08:10:39;;;;;;;9.67;2.43;;;;;;;;;;5055775;28;20179;-79
2022/11/01 08:13:06;;;;;;;12.93;2.60;;;;;;;;;;5053598;28;20422;-79
2022/11/01 08:15:33;;;;;;;10.10;2.65;;;;;;;;;;5072793;28;20418;-80
2022/11/01 08:18:00;;;;;;;15.40;3.07;;;;;;;;;;5072022;28;20402;-79
2022/11/01 08:20:27;;;;;;;13.63;3.00;;;;;;;;;;5055441;28;20409;-86
2022/11/01 08:22:53;;;;;;;12.40;3.03;;;;;;;;;;5072176;28;20486;-86
2022/11/01 08:25:20;;;;;;;11.57;2.63;;;;;;;;;;5055229;28;20444;-86
2022/11/01 08:27:46;;;;;;;8.27;2.40;;;;;;;;;;5054689;28;20187;-84
2022/11/01 08:30:12;;;;;;;9.87;2.40;;;;;;;;;;5038233;28;20214;-87
2022/11/01 08:32:38;;;;;;;11.55;2.88;;;;;;;;;;5038912;28;20417;-88
2022/11/01 08:35:04;;;;;;;12.65;3.03;;;;;;;;;;5038159;28;20505;-87
2022/11/01 08:37:30;;;;;;;10.87;2.70;;;;;;;;;;5055214;28;20454;-81
2022/11/01 08:39:56;;;;;;;11.70;2.90;;;;;;;;;;5038761;28;20187;-80
2022/11/01 08:42:22;;;;;;;15.00;3.03;;;;;;;;;;5055278;28;20513;-81
2022/11/01 08:44:48;;;;;;;14.90;3.00;;;;;;;;;;5037286;28;20507;-81
2022/11/01 08:47:14;;;;;;;12.20;3.05;;;;;;;;;;5038611;28;20468;-81
2022/11/01 08:49:40;;;;;;;12.07;3.17;;;;;;;;;;5054566;28;20419;-81
2022/11/01 08:52:06;;;;;;;12.05;2.75;;;;;;;;;;5038420;28;20421;-81
2022/11/01 08:54:33;;;;;;;10.07;2.53;;;;;;;;;;5037580;28;20218;-88
2022/11/01 08:57:01;;;;;;;11.93;2.93;;;;;;;;;;5055020;28;20221;-88
2022/11/01 08:59:27;;;;;;;11.80;2.80;;;;;;;;;;5038983;28;20426;-88
2022/11/01 09:01:53;;;;;;;11.00;3.08;;;;;;;;;;5054233;28;20441;-88
2022/11/01 09:04:19;;;;;;;8.77;2.70;;;;;;;;;;5038234;28;20207;-88
2022/11/01 09:06:45;;;;;;;9.83;2.80;;;;;;;;;;5057556;28;20183;-88
2022/11/01 09:09:11;;;;;;;8.93;2.60;;;;;;;;;;5042684;28;20206;-89
2022/11/01 09:11:38;;;;;;;13.87;2.67;;;;;;;;;;5038216;28;20191;-87
2022/11/01 09:14:04;;;;;;;9.50;2.97;;;;;;;;;;5054386;28;20191;-88
2022/11/01 09:16:31;;;;;;;12.00;2.60;;;;;;;;;;5039528;28;20183;-88
2022/11/01 09:19:00;;;;;;;12.13;2.70;;;;;;;;;;5035362;28;20194;-88
2022/11/01 09:21:26;;;;;;;10.13;2.60;;;;;;;;;;5031955;28;20195;-88
2022/11/01 09:23:52;;;;;;;8.70;2.47;;;;;;;;;;5038723;28;20239;-88
2022/11/01 09:26:19;;;;;;;7.47;2.43;;;;;;;;;;5038810;28;20302;-89
2022/11/01 09:28:45;;;;;;;10.37;2.87;;;;;;;;;;5038452;28;20187;-87
2022/11/01 09:31:12;;;;;;;11.53;2.70;;;;;;;;;;5043519;28;20191;-88
2022/11/01 09:33:38;;;;;;;11.13;2.63;;;;;;;;;;5058695;28;20193;-87
2022/11/01 09:36:04;;;;;;;13.03;2.70;;;;;;;;;;5077069;28;20175;-89
2022/11/01 09:38:30;;;;;;;13.17;2.80;;;;;;;;;;5058945;28;20176;-88
2022/11/01 09:41:01;;;;;;;11.37;2.90;;;;;;;;;;5061560;28;20259;-88
2022/11/01 09:43:30;;;;;;;9.80;2.67;;;;;;;;;;5059054;28;20179;-88
2022/11/01 09:45:58;;;;;;;10.40;2.77;;;;;;;;;;5058369;28;20180;-87
2022/11/01 09:48:25;;;;;;;9.10;2.53;;;;;;;;;;5076835;28;20178;-89
2022/11/01 09:50:52;;;;;;;9.23;2.67;;;;;;;;;;5058606;28;20229;-89
2022/11/01 09:53:20;;;;;;;7.33;2.60;;;;;;;;;;5059442;28;20232;-88
2022/11/01 09:55:55;;;;;;;8.57;2.57;;;;;;;;;;5072074;28;20180;-87
2022/11/01 09:58:24;;;;;;;11.00;2.60;;;;;;;;;;5039131;28;20233;-88
2022/11/01 10:01:14;;;;;;;13.93;2.87;;;;;;;;;;5058210;28;20272;-81
2022/11/01 10:03:52;;;;;;;9.23;2.83;;;;;;;;;;5038716;28;20203;-81
2022/11/01 10:06:23;;;;;;;9.17;2.90;;;;;;;;;;5074808;28;20221;-80
2022/11/01 10:08:49;;;;;;;9.00;2.95;;;;;;;;;;5057107;28;20410;-81
2022/11/01 10:11:15;;;;;;;14.47;3.20;;;;;;;;;;5075196;28;20254;-81
2022/11/01 10:13:44;;;;;;;12.83;2.53;;;;;;;;;;5074930;28;20229;-81
2022/11/01 10:16:27;;;;;;;11.67;3.00;;;;;;;;;;5075021;28;20180;-81
2022/11/01 10:18:59;;;;;;;8.60;2.40;;;;;;;;;;5073112;28;20183;-82
2022/11/01 10:21:27;;;;;;;8.23;2.43;;;;;;;;;;5074871;28;20186;-82
2022/11/01 10:23:53;;;;;;;13.07;2.43;;;;;;;;;;5056245;28;20230;-82
2022/11/01 10:26:25;;;;;;;14.03;2.50;;;;;;;;;;5074504;28;20183;-82
2022/11/01 10:28:54;;;;;;;8.80;2.43;;;;;;;;;;5057551;28;20270;-81
2022/11/01 10:31:22;;;;;;;10.50;2.73;;;;;;;;;;5056319;28;20263;-83
2022/11/01 10:33:55;;;;;;;13.70;2.60;;;;;;;;;;5056580;28;20194;-78
2022/11/01 10:36:23;;;;;;;8.57;2.87;;;;;;;;;;5056987;28;20179;-78
2022/11/01 10:38:58;;;;;;;8.30;2.30;;;;;;;;;;5056831;28;20179;-79
2022/11/01 10:41:44;;;;;;;11.33;2.70;;;;;;;;;;5057050;28;20269;-78
2022/11/01 10:44:31;;;;;;;12.65;2.88;;;;;;;;;;5065234;28;20441;-78
2022/11/01 10:46:58;;;;;;;11.25;2.97;;;;;;;;;;5071210;28;20453;-79
2022/11/01 10:49:34;;;;;;;10.32;2.72;;;;;;;;;;5056538;28;20429;-78
2022/11/01 10:52:02;;;;;;;12.05;3.22;;;;;;;;;;5057329;28;20422;-78
2022/11/01 10:54:30;;;;;;;10.55;2.90;;;;;;;;;;5073415;28;20430;-79
2022/11/01 10:57:00;;;;;;;9.87;3.03;;;;;;;;;;5054446;28;20422;-78
2022/11/01 10:59:32;;;;;;;12.35;3.50;;;;;;;;;;5073777;28;20414;-78
2022/11/01 11:01:59;;;;;;;10.25;3.03;;;;;;;;;;5056634;28;20472;-78
2022/11/01 11:04:25;;;;;;;10.85;2.90;;;;;;;;;;5039966;28;20457;-78
2022/11/01 11:06:51;;;;;;;10.75;3.08;;;;;;;;;;5039875;28;20425;-78
2022/11/01 11:09:37;;;;;;;13.90;2.87;;;;;;;;;;5055260;28;20209;-80
2022/11/01 11:12:05;;;;;;;9.77;2.97;;;;;;;;;;5055965;28;20406;-79
2022/11/01 11:14:33;;;;;;;11.52;3.00;;;;;;;;;;5054978;28;20445;-79
2022/11/01 11:17:01;;;;;;;11.85;3.13;;;;;;;;;;5056201;28;20470;-79
2022/11/01 11:19:32;;;;;;;12.48;3.20;;;;;;;;;;5072051;28;20430;-79
2022/11/01 11:21:59;;;;;;;17.90;3.10;;;;;;;;;;5073025;28;20411;-79
2022/11/01 11:24:30;;;;;;;11.48;2.90;;;;;;;;;;5055943;28;20470;-82
2022/11/01 11:26:56;;;;;;;14.45;3.33;;;;;;;;;;5055783;28;20461;-83
2022/11/01 11:29:40;;;;;;;11.45;2.97;;;;;;;;;;5038967;28;20438;-82
2022/11/01 11:32:13;;;;;;;11.65;3.17;;;;;;;;;;5073723;28;20473;-83
2022/11/01 11:34:40;;;;;;;13.25;3.00;;;;;;;;;;5073964;28;20410;-82
2022/11/01 11:37:07;;;;;;;11.13;2.90;;;;;;;;;;5055715;28;20509;-81
2022/11/01 11:39:35;;;;;;;13.27;3.15;;;;;;;;;;5072845;28;20417;-81
2022/11/01 11:42:12;;;;;;;12.48;3.03;;;;;;;;;;5073684;28;20406;-77
2022/11/01 11:44:40;;;;;;;10.82;3.10;;;;;;;;;;5054146;28;20461;-77
2022/11/01 11:47:16;;;;;;;12.10;3.25;;;;;;;;;;5054933;28;20425;-77
2022/11/01 11:49:42;;;;;;;11.50;3.20;;;;;;;;;;5072779;28;20462;-77
2022/11/01 11:52:17;;;;;;;14.63;3.30;;;;;;;;;;5039453;28;20410;-77
2022/11/01 11:54:43;;;;;;;12.38;3.00;;;;;;;;;;5053742;28;20426;-77
2022/11/01 11:57:15;;;;;;;12.82;3.25;;;;;;;;;;5055809;28;20441;-77
2022/11/01 11:59:42;;;;;;;14.17;3.03;;;;;;;;;;5055228;28;20421;-78
2022/11/01 12:02:35;;;;;;;11.07;3.20;;;;;;;;;;5054374;28;20422;-78
2022/11/01 12:05:02;;;;;;;13.50;2.92;;;;;;;;;;5048877;28;20469;-78
2022/11/01 12:07:36;;;;;;;10.88;2.78;;;;;;;;;;5055458;28;20410;-77
2022/11/01 12:10:06;;;;;;;11.68;3.10;;;;;;;;;;5072494;28;20422;-77
2022/11/01 12:12:34;;;;;;;11.50;3.20;;;;;;;;;;5055026;28;20425;-78
2022/11/01 12:15:04;;;;;;;11.57;3.00;;;;;;;;;;5054723;28;20465;-82
2022/11/01 12:17:35;;;;;;;11.93;3.00;;;;;;;;;;5039427;28;20414;-83
2022/11/01 12:20:08;;;;;;;14.88;3.20;;;;;;;;;;5054581;28;20437;-82
2022/11/01 12:22:35;;;;;;;12.30;3.10;;;;;;;;;;5072414;28;20402;-81
2022/11/01 12:25:06;;;;;;;13.13;2.73;;;;;;;;;;5051821;28;20227;-83
2022/11/01 12:27:33;;;;;;;12.30;3.10;;;;;;;;;;5069087;28;20426;-81
2022/11/01 12:30:01;;;;;;;12.48;3.20;;;;;;;;;;5053107;28;20412;-82
2022/11/01 12:32:33;;;;;;;10.88;2.70;;;;;;;;;;5066746;28;20423;-80
2022/11/01 12:35:03;;;;;;;12.02;3.00;;;;;;;;;;5050934;28;20424;-81
2022/11/01 12:37:32;;;;;;;12.05;2.92;;;;;;;;;;5050489;28;20420;-80
2022/11/01 12:40:01;;;;;;;12.68;2.97;;;;;;;;;;5051484;28;20506;-80
2022/11/01 12:42:50;;;;;;;10.50;2.97;;;;;;;;;;5052594;28;20423;-81
2022/11/01 12:45:25;;;;;;;13.03;3.00;;;;;;;;;;5046567;28;20574;-80
2022/11/01 12:48:03;;;;;;;12.77;2.92;;;;;;;;;;5050846;28;20431;-80
2022/11/01 12:50:49;;;;;;;11.63;2.88;;;;;;;;;;5052253;28;20407;-80
2022/11/01 12:53:30;;;;;;;11.65;2.88;;;;;;;;;;5021232;28;20423;-80
2022/11/01 12:55:57;;;;;;;10.13;2.50;;;;;;;;;;5050024;28;20188;-80
2022/11/01 12:58:24;;;;;;;12.77;3.17;;;;;;;;;;5051035;28;20512;-80
2022/11/01 13:01:08;;;;;;;11.77;2.80;;;;;;;;;;5032406;28;21489;-80
2022/11/01 13:03:44;;;;;;;8.90;2.27;;;;;;;;;;5056670;28;20222;-80
2022/11/01 13:06:27;;;;;;;13.03;2.50;;;;;;;;;;5051835;28;20205;-78
2022/11/01 13:09:06;;;;;;;9.40;2.90;;;;;;;;;;5056688;28;20448;-78
2022/11/01 13:11:51;;;;;;;8.83;2.30;;;;;;;;;;5056141;28;20210;-78
2022/11/01 13:14:23;;;;;;;10.87;2.43;;;;;;;;;;5056251;28;20194;-77
2022/11/01 13:16:53;;;;;;;10.80;2.63;;;;;;;;;;5052003;28;20407;-77
2022/11/01 13:19:26;;;;;;;9.60;1.93;;;;;;;;;;5045284;28;20220;-77
2022/11/01 13:22:00;;;;;;;8.57;2.20;;;;;;;;;;5068344;28;20190;-80
2022/11/01 13:24:26;;;;;;;9.40;2.40;;;;;;;;;;5055328;28;20448;-80
2022/11/01 13:27:01;;;;;;;9.70;2.40;;;;;;;;;;5053489;28;20546;-80
2022/11/01 13:29:34;;;;;;;12.40;2.60;;;;;;;;;;5054011;28;20182;-80
2022/11/01 13:32:04;;;;;;;8.37;2.23;;;;;;;;;;5054597;28;20179;-80
2022/11/01 13:34:36;;;;;;;11.93;2.50;;;;;;;;;;5053862;28;20184;-80
2022/11/01 13:37:06;;;;;;;7.20;2.10;;;;;;;;;;5053910;28;20207;-80
2022/11/01 13:39:36;;;;;;;11.70;2.23;;;;;;;;;;5054649;28;20182;-89
2022/11/01 13:42:09;;;;;;;10.00;2.10;;;;;;;;;;5049398;28;20215;-88
2022/11/01 13:44:38;;;;;;;9.47;2.33;;;;;;;;;;5054258;28;20222;-89
2022/11/01 13:47:20;;;;;;;14.98;3.00;;;;;;;;;;5053739;28;20412;-88
2022/11/01 13:50:05;;;;;;;8.47;1.90;;;;;;;;;;5054549;28;20180;-89
2022/11/01 13:52:33;;;;;;;8.37;2.40;;;;;;;;;;5055657;28;20172;-88
2022/11/01 13:55:18;;;;;;;11.07;2.37;;;;;;;;;;5054374;28;20187;-81
2022/11/01 13:57:44;;;;;;;9.53;2.40;;;;;;;;;;5070398;28;20188;-81
2022/11/01 14:00:29;;;;;;;10.00;2.53;;;;;;;;;;5053613;28;20176;-81
2022/11/01 14:02:56;;;;;;;14.90;2.78;;;;;;;;;;5052575;28;20475;-82
2022/11/01 14:05:35;;;;;;;11.50;2.43;;;;;;;;;;5053026;28;20286;-82
2022/11/01 14:08:05;;;;;;;8.53;2.13;;;;;;;;;;5053161;28;20226;-81
2022/11/01 14:10:31;;;;;;;9.00;2.37;;;;;;;;;;5053725;28;20179;-77
2022/11/01 14:12:58;;;;;;;9.93;2.07;;;;;;;;;;5058415;28;20268;-78
2022/11/01 14:15:28;;;;;;;6.77;2.20;;;;;;;;;;5054064;28;20182;-78
2022/11/01 14:17:54;;;;;;;9.87;2.30;;;;;;;;;;5054209;28;20233;-78
2022/11/01 14:20:32;;;;;;;7.57;2.13;;;;;;;;;;5064902;28;20226;-78
2022/11/01 14:23:18;;;;;;;9.90;2.40;;;;;;;;;;5068111;28;20427;-78
2022/11/01 14:26:24;;;;;;;11.50;2.33;;;;;;;;;;5075780;28;20548;-77
2022/11/01 14:28:55;;;;;;;10.20;2.17;;;;;;;;;;5067351;28;20175;-77
2022/11/01 14:31:22;;;;;;;8.93;2.30;;;;;;;;;;5072250;28;20447;-78
2022/11/01 14:33:50;;;;;;;5.13;2.03;;;;;;;;;;5082725;28;20206;-78
2022/11/01 14:36:18;;;;;;;11.40;2.60;;;;;;;;;;5071627;28;20187;-79
2022/11/01 14:39:00;;;;;;;9.30;2.20;;;;;;;;;;5080392;28;20179;-77
2022/11/01 14:41:29;;;;;;;11.73;2.47;;;;;;;;;;5061738;28;20409;-77
2022/11/01 14:44:00;;;;;;;6.50;2.00;;;;;;;;;;5086424;28;20178;-77
2022/11/01 14:46:28;;;;;;;6.17;1.90;;;;;;;;;;5059302;28;20201;-78
2022/11/01 14:49:02;;;;;;;6.23;1.90;;;;;;;;;;5074169;28;20267;-77
2022/11/01 14:51:36;;;;;;;7.20;2.37;;;;;;;;;;5060185;28;20274;-77
2022/11/01 14:54:22;;;;;;;9.30;1.90;;;;;;;;;;5069297;28;20257;-79
2022/11/01 14:56:53;;;;;;;8.37;2.13;;;;;;;;;;5070281;28;20272;-78